Aérodrome :
LOGIN :

S'inscrire | Disclaimer

   EN    FR    IT 

 










Légende :    VFR   VFR Marginal   IFR   IFR Intensif   IFR Très Intensif
Visi : 
Plafond : 
>= 8 km
>= 3000ft
5 à 8 km
1000 à 3000 ft
1500m à 5 km
500 à 1000 ft
800 à 1500m
200 à 500 ft
< 800m
< 200 ft
Symboles :   Orages  Brouillard  Fortes neiges  Fortes précipitations  Vent > 20 kt
SIGMETs :   Divers  Orages  Givrage  Turbulence  Onde Orograph.  Cendres Volcan.







- Altitude de l'aérodrome : 856 ft
- Code IATA : VGO


LEVX - Vigo Peinador

DERNIER METAR :
  • 130436Z VRB01KT 0150 R19/P2000 R01/0500D BCFG VV001 06/06 Q1024 NOSIG

METARs EXPIRÉS :
  • 130400Z 00000KT 9999 1300SE BCFG NSC 06/06 Q1024 NOSIG
  • 130330Z 00000KT CAVOK 07/06 Q1024 NOSIG
  • 130300Z 00000KT CAVOK 06/06 Q1024 NOSIG
  • 130230Z VRB02KT CAVOK 06/05 Q1024 NOSIG
  • 130200Z 00000KT CAVOK 07/06 Q1023 NOSIG

TAF TAF LEVX
Valide du 13 à 00h jusqu'au 14 à 00h UTC


122300Z 1300/1324 VRB05KT 9999 FEW020 SCT025 TX15/1314Z TN04/1306Z
PROB40
TEMPO 1300/1308 3000 BCFG
PROB30
TEMPO 1300/1307 0350 FG VV001
Pas de NOTAMs connus pour ce terrain.
1 SIGMET publié pour la FIR Madrid (LECM) :
 
Turbulence forte
LECM SIGMET 1 VALID 130300/130600 LEVA
LECM MADRID UIR SEV TURB FCST WI N41 W00652 - N4417 W00408 - N4351 W00241 - N3709 W00721 - N4058 W00653 - N41 W00652 FL270/330 STNR WKN=



MET'MAP, la Météo Aéronautique d'un coup d'oeil ! - Copyright ORBIFLY Décembre 2007 - Disclaimer

ORBIFLY MET'MAP TEAM :

Programmation & Développement : Alexandra Zaïnal
Conception & Développement : Baudouin d'Aumeries
Co-Programmation & Développement : Marc-Olivier Méhu
Soutien technique & logistique : Manuel Goepfert

Contact : metmap@orbifly.com




SOURCES & CREDITS :

   NOAA